createdAt,value
2018-07-04T00:02:18.383Z,1.90
2018-07-04T00:04:57.962Z,1.80
2018-07-04T00:07:31.502Z,2.10
2018-07-04T00:10:11.051Z,1.90
2018-07-04T00:12:50.717Z,1.93
2018-07-04T00:15:30.196Z,2.00
2018-07-04T00:18:09.749Z,2.10
2018-07-04T00:20:49.450Z,2.20
2018-07-04T00:23:29.164Z,2.10
2018-07-04T00:26:08.611Z,2.30
2018-07-04T00:28:48.110Z,2.10
2018-07-04T00:31:27.767Z,1.97
2018-07-04T00:34:07.462Z,2.10
2018-07-04T00:36:41.137Z,2.43
2018-07-04T00:39:20.715Z,2.03
2018-07-04T00:42:00.310Z,2.20
2018-07-04T00:44:39.825Z,2.47
2018-07-04T00:47:19.603Z,2.40
2018-07-04T00:49:59.336Z,2.33
2018-07-04T00:52:39.099Z,2.30
2018-07-04T00:55:18.842Z,2.37
2018-07-04T00:57:52.382Z,2.13
2018-07-04T01:00:32.058Z,2.10
2018-07-04T01:03:11.838Z,2.20
2018-07-04T01:05:45.397Z,2.37
2018-07-04T01:08:25.154Z,1.90
2018-07-04T01:11:04.835Z,2.10
2018-07-04T01:13:38.347Z,2.00
2018-07-04T01:16:17.889Z,1.83
2018-07-04T01:18:51.458Z,2.17
2018-07-04T01:21:30.960Z,1.90
2018-07-04T01:24:10.492Z,1.97
2018-07-04T01:26:50.071Z,2.10
2018-07-04T01:29:29.686Z,2.10
2018-07-04T01:32:09.315Z,2.00
2018-07-04T01:34:49.084Z,2.10
2018-07-04T01:37:28.651Z,2.30
2018-07-04T01:40:02.124Z,2.23
2018-07-04T01:42:41.846Z,2.43
2018-07-04T01:45:21.466Z,2.33
2018-07-04T01:48:01.173Z,2.13
2018-07-04T01:50:40.850Z,2.07
2018-07-04T01:53:20.427Z,2.20
2018-07-04T01:56:00.074Z,2.23
2018-07-04T01:58:39.570Z,2.40
2018-07-04T02:01:19.137Z,2.43
2018-07-04T02:03:58.798Z,2.00
2018-07-04T02:06:38.328Z,2.23
2018-07-04T02:09:17.838Z,1.70
2018-07-04T02:11:57.617Z,2.27
2018-07-04T02:14:37.278Z,1.80
2018-07-04T02:17:16.778Z,2.03
2018-07-04T02:19:56.429Z,2.17
2018-07-04T02:22:36.144Z,2.03
2018-07-04T02:25:15.601Z,1.80
2018-07-04T02:27:55.366Z,2.00
2018-07-04T02:30:34.928Z,2.07
2018-07-04T02:33:08.430Z,2.17
2018-07-04T02:35:42.045Z,2.17
2018-07-04T02:38:21.752Z,2.30
2018-07-04T02:41:01.248Z,2.03
2018-07-04T02:43:41.031Z,2.00
2018-07-04T02:46:26.031Z,2.57
2018-07-04T02:48:59.698Z,2.30
2018-07-04T02:51:39.215Z,2.00
2018-07-04T02:54:18.890Z,2.00
2018-07-04T02:56:58.515Z,2.40
2018-07-04T02:59:38.000Z,2.00
2018-07-04T03:02:17.658Z,1.90
2018-07-04T03:04:57.362Z,2.20
2018-07-04T03:07:36.806Z,2.33
2018-07-04T03:10:10.250Z,2.20
2018-07-04T03:12:50.027Z,2.17
2018-07-04T03:15:29.638Z,2.40
2018-07-04T03:18:09.438Z,2.17
2018-07-04T03:20:49.082Z,2.20
2018-07-04T03:23:22.619Z,2.50
2018-07-04T03:26:02.299Z,2.20
2018-07-04T03:28:41.826Z,2.20
2018-07-04T03:31:21.406Z,2.17
2018-07-04T03:34:01.090Z,2.00
2018-07-04T03:36:40.710Z,2.10
2018-07-04T03:39:20.306Z,1.93
2018-07-04T03:41:59.821Z,2.60
2018-07-04T03:44:39.458Z,2.10
2018-07-04T03:47:19.108Z,2.20
2018-07-04T03:49:58.660Z,2.10
2018-07-04T03:52:38.323Z,2.40
2018-07-04T03:55:17.919Z,2.37
2018-07-04T03:57:57.535Z,2.47
2018-07-04T04:00:37.236Z,2.10
2018-07-04T04:03:16.862Z,2.33
2018-07-04T04:05:56.639Z,2.60
2018-07-04T04:08:36.173Z,2.13
2018-07-04T04:11:15.736Z,2.30
2018-07-04T04:13:49.389Z,2.27
2018-07-04T04:16:29.030Z,2.50
2018-07-04T04:19:08.699Z,2.53
2018-07-04T04:21:48.307Z,2.40
2018-07-04T04:24:27.987Z,2.53
2018-07-04T04:27:07.545Z,2.43
2018-07-04T04:29:41.132Z,2.50
2018-07-04T04:32:14.681Z,2.30
2018-07-04T04:34:54.450Z,2.30
2018-07-04T04:37:34.143Z,2.20
2018-07-04T04:40:13.788Z,2.40
2018-07-04T04:42:53.349Z,2.47
2018-07-04T04:45:33.013Z,2.83
2018-07-04T04:48:12.770Z,2.40
2018-07-04T04:50:52.510Z,2.60
2018-07-04T04:53:32.088Z,2.70
2018-07-04T04:56:05.719Z,2.20
2018-07-04T04:58:45.497Z,2.40
2018-07-04T05:01:25.239Z,2.43
2018-07-04T05:04:04.709Z,2.60
2018-07-04T05:06:38.385Z,2.40
2018-07-04T05:09:17.980Z,2.30
2018-07-04T05:11:57.595Z,2.77
2018-07-04T05:14:37.279Z,2.60
2018-07-04T05:17:16.929Z,2.40
2018-07-04T05:19:56.597Z,2.43
2018-07-04T05:22:36.226Z,2.60
2018-07-04T05:25:15.891Z,2.23
2018-07-04T05:27:55.598Z,2.37
2018-07-04T05:30:35.058Z,2.77
2018-07-04T05:33:14.720Z,2.30
2018-07-04T05:35:54.406Z,2.67
2018-07-04T05:38:33.970Z,2.50
2018-07-04T05:41:13.801Z,2.50
2018-07-04T05:43:53.390Z,2.23
2018-07-04T05:46:32.869Z,2.47
2018-07-04T05:49:12.334Z,2.30
2018-07-04T05:51:51.848Z,2.70
2018-07-04T05:54:31.560Z,2.77
2018-07-04T05:57:11.317Z,2.47
2018-07-04T05:59:44.997Z,2.57
2018-07-04T06:02:24.599Z,2.87
2018-07-04T06:05:04.369Z,2.33
2018-07-04T06:07:43.997Z,2.80
2018-07-04T06:10:23.672Z,2.60
2018-07-04T06:13:03.333Z,2.80
2018-07-04T06:15:36.853Z,2.43
2018-07-04T06:18:16.420Z,2.27
2018-07-04T06:20:56.006Z,2.40
2018-07-04T06:23:35.738Z,2.60
2018-07-04T06:26:15.346Z,2.60
2018-07-04T06:28:55.127Z,2.80
2018-07-04T06:31:34.771Z,2.60
2018-07-04T06:34:14.346Z,2.60
2018-07-04T06:36:54.074Z,2.40
2018-07-04T06:39:21.737Z,2.60
2018-07-04T06:41:49.193Z,2.80
2018-07-04T06:44:16.624Z,2.67
2018-07-04T06:46:43.792Z,3.33
2018-07-04T06:49:10.990Z,2.30
2018-07-04T06:51:38.115Z,2.60
2018-07-04T06:54:05.292Z,2.60
2018-07-04T06:56:32.436Z,2.67
2018-07-04T06:58:59.604Z,3.23
2018-07-04T07:01:26.763Z,2.53
2018-07-04T07:04:06.358Z,2.33
2018-07-04T07:06:39.806Z,2.50
2018-07-04T07:09:19.251Z,2.27
2018-07-04T07:11:58.786Z,2.37
2018-07-04T07:14:38.386Z,2.40
2018-07-04T07:17:17.910Z,2.60
2018-07-04T07:19:57.582Z,2.47
2018-07-04T07:22:37.139Z,2.23
2018-07-04T07:25:16.734Z,2.70
2018-07-04T07:27:56.513Z,2.60
2018-07-04T07:30:36.186Z,2.63
2018-07-04T07:33:15.916Z,2.17
2018-07-04T07:35:55.679Z,2.20
2018-07-04T07:38:35.142Z,2.40
2018-07-04T07:41:08.746Z,2.23
2018-07-04T07:43:48.210Z,2.53
2018-07-04T07:46:27.834Z,2.23
2018-07-04T07:49:07.293Z,2.10
2018-07-04T07:51:46.958Z,2.57
2018-07-04T07:54:26.749Z,2.17
2018-07-04T07:57:06.232Z,1.87
2018-07-04T07:59:45.785Z,2.10
2018-07-04T08:02:25.234Z,2.17
2018-07-04T08:05:04.825Z,2.40
2018-07-04T08:07:44.434Z,2.80
2018-07-04T08:10:18.013Z,2.30
2018-07-04T08:12:57.554Z,2.30
2018-07-04T08:15:37.191Z,2.00
2018-07-04T08:18:16.931Z,2.40
2018-07-04T08:20:56.361Z,2.10
2018-07-04T08:23:35.787Z,2.10
2018-07-04T08:26:15.366Z,1.90
2018-07-04T08:28:54.964Z,1.60
2018-07-04T08:31:34.579Z,2.83
2018-07-04T08:34:14.030Z,2.40
2018-07-04T08:36:53.773Z,1.83
2018-07-04T08:39:33.453Z,2.53
2018-07-04T08:42:13.125Z,13.27
2018-07-04T08:44:46.688Z,3.93
2018-07-04T08:47:26.238Z,2.07
2018-07-04T08:50:05.986Z,1.90
2018-07-04T08:52:45.753Z,2.50
2018-07-04T08:55:25.355Z,2.23
2018-07-04T08:58:04.847Z,2.17
2018-07-04T09:00:44.331Z,2.03
2018-07-04T09:03:23.960Z,1.80
2018-07-04T09:06:03.646Z,2.30
2018-07-04T09:08:43.248Z,2.37
2018-07-04T09:11:23.030Z,2.50
2018-07-04T09:14:02.590Z,2.00
2018-07-04T09:16:42.262Z,2.13
2018-07-04T09:19:21.926Z,2.40
2018-07-04T09:22:01.870Z,3.17
2018-07-04T09:24:41.358Z,2.77
2018-07-04T09:27:21.047Z,2.87
2018-07-04T09:30:00.700Z,2.40
2018-07-04T09:32:40.414Z,2.50
2018-07-04T09:35:19.987Z,2.50
2018-07-04T09:37:59.716Z,2.97
2018-07-04T09:40:39.282Z,2.93
2018-07-04T09:43:19.029Z,3.30
2018-07-04T09:45:58.735Z,2.87
2018-07-04T09:48:38.190Z,2.90
2018-07-04T09:51:17.824Z,3.10
2018-07-04T09:53:57.363Z,2.90
2018-07-04T09:56:37.086Z,3.20
2018-07-04T09:59:16.537Z,3.40
2018-07-04T10:01:56.122Z,3.00
2018-07-04T10:04:29.795Z,2.73
2018-07-04T10:07:09.421Z,2.63
2018-07-04T10:09:48.930Z,2.67
2018-07-04T10:12:28.518Z,2.90
2018-07-04T10:15:08.099Z,2.80
2018-07-04T10:17:47.731Z,3.07
2018-07-04T10:20:27.442Z,2.80
2018-07-04T10:23:07.092Z,2.40
2018-07-04T10:25:46.738Z,2.50
2018-07-04T10:28:26.250Z,3.00
2018-07-04T10:31:05.886Z,2.60
2018-07-04T10:33:45.410Z,3.17
2018-07-04T10:36:24.905Z,2.47
2018-07-04T10:39:05.141Z,2.63
2018-07-04T10:41:44.795Z,2.70
2018-07-04T10:44:24.387Z,2.60
2018-07-04T10:47:04.174Z,2.50
2018-07-04T10:49:37.862Z,3.10
2018-07-04T10:52:17.635Z,3.30
2018-07-04T10:54:57.226Z,3.40
2018-07-04T10:57:36.780Z,3.03
2018-07-04T11:00:16.430Z,3.23
2018-07-04T11:02:55.810Z,3.20
2018-07-04T11:05:35.373Z,3.00
2018-07-04T11:08:15.049Z,2.80
2018-07-04T11:10:54.570Z,2.50
2018-07-04T11:13:34.166Z,2.40
2018-07-04T11:16:07.866Z,2.80
2018-07-04T11:18:41.405Z,2.53
2018-07-04T11:21:21.189Z,2.40
2018-07-04T11:24:00.821Z,2.93
2018-07-04T11:26:40.574Z,3.33
2018-07-04T11:29:20.311Z,3.33
2018-07-04T11:31:59.843Z,3.10
2018-07-04T11:34:39.470Z,2.80
2018-07-04T11:37:19.151Z,3.03
2018-07-04T11:39:58.731Z,3.43
2018-07-04T11:42:38.433Z,3.40
2018-07-04T11:45:17.998Z,2.77
2018-07-04T11:47:45.322Z,4.57
2018-07-04T11:50:12.486Z,3.20
2018-07-04T11:52:39.934Z,2.87
2018-07-04T11:55:07.097Z,4.33
2018-07-04T11:57:34.530Z,3.00
2018-07-04T12:00:01.689Z,2.80
2018-07-04T12:02:28.855Z,3.23
2018-07-04T12:05:08.462Z,2.80
2018-07-04T12:07:35.629Z,3.03
2018-07-04T12:10:02.805Z,3.27
2018-07-04T12:12:29.978Z,3.10
2018-07-04T12:14:57.166Z,3.00
2018-07-04T12:17:24.321Z,3.30
2018-07-04T12:19:51.481Z,3.53
2018-07-04T12:22:18.901Z,3.30
2018-07-04T12:24:46.063Z,3.10
2018-07-04T12:27:13.245Z,3.10
2018-07-04T12:29:40.653Z,3.43
2018-07-04T12:32:07.894Z,3.70
2018-07-04T12:34:35.002Z,2.90
2018-07-04T12:37:02.165Z,3.20
2018-07-04T12:39:29.330Z,3.87
2018-07-04T12:41:56.582Z,3.90
2018-07-04T12:44:23.719Z,3.43
2018-07-04T12:46:50.877Z,3.57
2018-07-04T12:49:22.299Z,3.87
2018-07-04T12:51:49.454Z,3.57
2018-07-04T12:54:22.157Z,3.90
2018-07-04T12:57:01.539Z,3.93
2018-07-04T12:59:41.217Z,3.87
2018-07-04T13:02:20.742Z,4.10
2018-07-04T13:05:00.388Z,4.33
2018-07-04T13:07:40.029Z,4.07
2018-07-04T13:10:19.671Z,4.80
2018-07-04T13:12:59.382Z,4.77
2018-07-04T13:15:38.985Z,5.80
2018-07-04T13:18:18.637Z,4.13
2018-07-04T13:20:58.397Z,4.20
2018-07-04T13:23:38.175Z,4.87
2018-07-04T13:26:17.744Z,7.03
2018-07-04T13:28:57.291Z,4.20
2018-07-04T13:31:36.754Z,4.57
2018-07-04T13:34:16.479Z,4.63
2018-07-04T13:36:56.043Z,4.23
2018-07-04T13:39:35.681Z,4.77
2018-07-04T13:42:15.258Z,4.57
2018-07-04T13:44:54.731Z,4.80
2018-07-04T13:47:34.382Z,5.10
2018-07-04T13:50:14.162Z,5.73
2018-07-04T13:52:53.773Z,5.30
2018-07-04T13:55:33.564Z,5.00
2018-07-04T13:58:13.293Z,5.47
2018-07-04T14:00:52.989Z,5.27
2018-07-04T14:03:32.548Z,4.70
2018-07-04T14:06:12.159Z,5.17
2018-07-04T14:08:51.766Z,4.90
2018-07-04T14:11:31.346Z,4.93
2018-07-04T14:14:11.095Z,5.20
2018-07-04T14:16:50.661Z,4.90
2018-07-04T14:19:30.338Z,4.40
2018-07-04T14:22:03.870Z,4.47
2018-07-04T14:24:43.689Z,4.63
2018-07-04T14:27:17.374Z,3.70
2018-07-04T14:29:57.097Z,4.13
2018-07-04T14:32:36.647Z,4.00
2018-07-04T14:35:16.464Z,4.07
2018-07-04T14:37:56.226Z,3.50
2018-07-04T14:40:35.641Z,3.80
2018-07-04T14:43:15.378Z,3.43
2018-07-04T14:45:55.038Z,4.27
2018-07-04T14:48:34.722Z,4.23
2018-07-04T14:51:08.382Z,4.33
2018-07-04T14:53:47.933Z,4.13
2018-07-04T14:56:27.663Z,4.03
2018-07-04T14:59:07.422Z,4.70
2018-07-04T15:01:47.201Z,4.17
2018-07-04T15:04:26.832Z,5.00
2018-07-04T15:07:00.369Z,4.70
2018-07-04T15:09:39.894Z,4.50
2018-07-04T15:12:19.494Z,5.10
2018-07-04T15:14:58.991Z,4.97
2018-07-04T15:17:38.557Z,5.20
2018-07-04T15:20:18.096Z,5.47
2018-07-04T15:22:57.787Z,5.47
2018-07-04T15:25:37.263Z,5.07
2018-07-04T15:28:16.807Z,5.10
2018-07-04T15:30:56.541Z,5.50
2018-07-04T15:33:36.345Z,5.00
2018-07-04T15:36:09.898Z,5.10
2018-07-04T15:38:49.453Z,4.93
2018-07-04T15:41:29.210Z,5.40
2018-07-04T15:44:08.788Z,5.23
2018-07-04T15:46:48.351Z,4.87
2018-07-04T15:49:28.028Z,5.43
2018-07-04T15:52:07.638Z,5.03
2018-07-04T15:54:47.348Z,4.93
2018-07-04T15:57:26.927Z,5.50
2018-07-04T16:00:06.482Z,5.23
2018-07-04T16:02:46.142Z,4.57
2018-07-04T16:05:26.465Z,4.50
2018-07-04T16:08:06.173Z,4.60
2018-07-04T16:10:40.809Z,4.90
2018-07-04T16:13:20.399Z,5.30
2018-07-04T16:16:00.190Z,5.23
2018-07-04T16:18:39.762Z,5.30
2018-07-04T16:21:19.533Z,5.47
2018-07-04T16:23:59.162Z,4.60
2018-07-04T16:26:38.891Z,5.33
2018-07-04T16:29:18.462Z,5.13
2018-07-04T16:31:58.207Z,4.80
2018-07-04T16:34:37.867Z,5.40
2018-07-04T16:37:17.524Z,5.07
2018-07-04T16:39:51.185Z,4.63
2018-07-04T16:42:30.898Z,4.53
2018-07-04T16:45:10.430Z,5.03
2018-07-04T16:47:50.114Z,4.87
2018-07-04T16:50:29.671Z,4.60
2018-07-04T16:53:09.275Z,4.57
2018-07-04T16:55:48.924Z,4.90
2018-07-04T16:58:28.517Z,4.33
2018-07-04T17:01:01.942Z,4.40
2018-07-04T17:03:41.758Z,4.30
2018-07-04T17:06:21.189Z,4.70
2018-07-04T17:09:00.670Z,4.50
2018-07-04T17:11:40.522Z,4.47
2018-07-04T17:14:20.178Z,4.27
2018-07-04T17:16:59.812Z,4.67
2018-07-04T17:19:39.354Z,4.33
2018-07-04T17:22:19.024Z,4.30
2018-07-04T17:24:58.782Z,4.50
2018-07-04T17:27:38.503Z,5.00
2018-07-04T17:30:18.366Z,4.97
2018-07-04T17:32:57.958Z,5.03
2018-07-04T17:35:37.756Z,4.70
2018-07-04T17:38:17.358Z,5.20
2018-07-04T17:40:57.051Z,4.60
2018-07-04T17:43:36.784Z,4.60
2018-07-04T17:46:16.346Z,4.30
2018-07-04T17:48:49.996Z,3.93
2018-07-04T17:51:29.554Z,4.30
2018-07-04T17:54:09.198Z,4.27
2018-07-04T17:56:48.914Z,4.13
2018-07-04T17:59:28.502Z,3.90
2018-07-04T18:02:02.081Z,4.10
2018-07-04T18:04:41.726Z,3.73
2018-07-04T18:07:21.283Z,3.33
2018-07-04T18:09:54.674Z,3.83
2018-07-04T18:12:28.338Z,3.63
2018-07-04T18:15:07.930Z,3.30
2018-07-04T18:17:41.544Z,3.23
2018-07-04T18:20:21.122Z,3.10
2018-07-04T18:23:00.770Z,3.30
2018-07-04T18:25:40.530Z,3.47
2018-07-04T18:28:20.154Z,3.03
2018-07-04T18:30:59.768Z,3.67
2018-07-04T18:33:39.313Z,3.00
2018-07-04T18:36:18.937Z,3.47
2018-07-04T18:38:58.445Z,3.63
2018-07-04T18:41:32.084Z,3.70
2018-07-04T18:44:11.706Z,3.50
2018-07-04T18:46:51.346Z,3.83
2018-07-04T18:49:30.953Z,3.37
2018-07-04T18:52:10.702Z,3.90
2018-07-04T18:54:50.195Z,4.20
2018-07-04T18:57:29.898Z,4.00
2018-07-04T19:00:09.478Z,3.77
2018-07-04T19:02:49.137Z,4.20
2018-07-04T19:05:28.690Z,4.27
2018-07-04T19:08:08.325Z,4.07
2018-07-04T19:10:48.090Z,4.00
2018-07-04T19:13:27.787Z,4.00
2018-07-04T19:16:07.136Z,4.00
2018-07-04T19:18:46.774Z,3.87
2018-07-04T19:21:26.551Z,3.80
2018-07-04T19:24:06.365Z,3.73
2018-07-04T19:26:46.137Z,4.10
2018-07-04T19:29:25.883Z,4.20
2018-07-04T19:32:05.442Z,4.00
2018-07-04T19:34:45.170Z,4.27
2018-07-04T19:37:24.779Z,4.30
2018-07-04T19:40:04.457Z,4.00
2018-07-04T19:42:43.916Z,3.70
2018-07-04T19:45:17.574Z,4.33
2018-07-04T19:47:57.252Z,4.40
2018-07-04T19:50:36.777Z,4.40
2018-07-04T19:53:16.466Z,4.60
2018-07-04T19:55:56.121Z,4.40
2018-07-04T19:58:35.938Z,4.80
2018-07-04T20:01:09.453Z,4.97
2018-07-04T20:03:49.034Z,4.40
2018-07-04T20:06:28.706Z,4.87
2018-07-04T20:09:08.565Z,4.60
2018-07-04T20:11:42.202Z,4.53
2018-07-04T20:14:21.817Z,4.90
2018-07-04T20:16:55.483Z,5.03
2018-07-04T20:19:35.233Z,4.87
2018-07-04T20:22:14.853Z,5.03
2018-07-04T20:24:54.623Z,5.63
2018-07-04T20:27:34.255Z,5.77
2018-07-04T20:30:13.848Z,4.50
2018-07-04T20:32:53.482Z,5.57
2018-07-04T20:35:33.053Z,5.27
2018-07-04T20:38:12.781Z,5.43
2018-07-04T20:40:52.442Z,5.17
2018-07-04T20:43:32.323Z,5.27
2018-07-04T20:46:11.835Z,5.73
2018-07-04T20:48:51.590Z,5.50
2018-07-04T20:51:31.231Z,5.70
2018-07-04T20:54:10.860Z,5.27
2018-07-04T20:56:50.870Z,5.77
2018-07-04T20:59:24.538Z,5.50
2018-07-04T21:02:04.182Z,5.20
2018-07-04T21:04:43.747Z,5.53
2018-07-04T21:07:17.256Z,5.33
2018-07-04T21:09:50.913Z,5.43
2018-07-04T21:12:30.346Z,5.60
2018-07-04T21:15:10.534Z,5.67
2018-07-04T21:17:50.133Z,5.47
2018-07-04T21:20:29.845Z,5.67
2018-07-04T21:23:03.394Z,5.33
2018-07-04T21:25:43.001Z,5.30
2018-07-04T21:28:22.587Z,5.60
2018-07-04T21:31:02.042Z,5.20
2018-07-04T21:33:41.634Z,5.87
2018-07-04T21:36:21.262Z,5.43
2018-07-04T21:39:00.826Z,5.43
2018-07-04T21:41:40.370Z,5.77
2018-07-04T21:44:20.065Z,5.73
2018-07-04T21:46:53.751Z,6.50
2018-07-04T21:49:33.523Z,5.73
2018-07-04T21:52:13.178Z,5.77
2018-07-04T21:54:52.798Z,6.00
2018-07-04T21:57:26.462Z,5.33
2018-07-04T22:00:06.183Z,5.33
2018-07-04T22:02:45.862Z,5.53
2018-07-04T22:05:25.398Z,5.73
2018-07-04T22:08:05.091Z,6.03
2018-07-04T22:10:44.676Z,5.93
2018-07-04T22:13:24.376Z,5.60
2018-07-04T22:16:04.218Z,6.20
2018-07-04T22:18:43.947Z,5.80
2018-07-04T22:21:17.602Z,6.00
2018-07-04T22:23:57.124Z,5.97
2018-07-04T22:26:36.783Z,5.87
2018-07-04T22:29:16.541Z,5.50
2018-07-04T22:31:56.102Z,6.00
2018-07-04T22:34:35.814Z,6.57
2018-07-04T22:37:15.570Z,6.47
2018-07-04T22:39:55.195Z,5.40
2018-07-04T22:42:34.714Z,6.20
2018-07-04T22:45:14.418Z,5.83
2018-07-04T22:47:54.156Z,6.30
2018-07-04T22:50:33.650Z,6.40
2018-07-04T22:53:13.065Z,6.40
2018-07-04T22:55:52.861Z,5.57
2018-07-04T22:58:32.425Z,5.70
2018-07-04T23:01:12.018Z,6.00
2018-07-04T23:03:51.914Z,6.10
2018-07-04T23:06:31.638Z,6.27
2018-07-04T23:09:11.278Z,6.07
2018-07-04T23:11:51.312Z,5.40
2018-07-04T23:14:30.898Z,5.73
2018-07-04T23:17:10.614Z,5.87
2018-07-04T23:19:50.367Z,5.53
2018-07-04T23:22:30.039Z,6.87
2018-07-04T23:25:03.955Z,6.10
2018-07-04T23:27:43.650Z,6.17
2018-07-04T23:30:23.292Z,5.63
2018-07-04T23:33:02.918Z,6.30
2018-07-04T23:35:42.618Z,6.20
2018-07-04T23:38:16.185Z,6.50
2018-07-04T23:40:55.843Z,6.30
2018-07-04T23:43:35.394Z,6.73
2018-07-04T23:46:15.052Z,6.90
2018-07-04T23:48:54.477Z,7.10
2018-07-04T23:51:28.136Z,6.07
2018-07-04T23:54:07.778Z,6.53
2018-07-04T23:56:47.451Z,6.87
2018-07-04T23:59:27.046Z,6.50
